sensor_id;sensor_type;location;lat;lon;timestamp;pressure;altitude;pressure_sealevel;temperature;humidity
1401;BME280;46518;48.842;8.926;2023-07-28T00:00:09;96432.56;;;19.25;78.61
1401;BME280;46518;48.842;8.926;2023-07-28T00:02:40;96439.63;;;19.21;79.09
1401;BME280;46518;48.842;8.926;2023-07-28T00:05:08;96438.41;;;19.10;79.94
1401;BME280;46518;48.842;8.926;2023-07-28T00:07:36;96434.34;;;19.12;80.17
1401;BME280;46518;48.842;8.926;2023-07-28T00:10:05;96428.38;;;18.98;81.10
1401;BME280;46518;48.842;8.926;2023-07-28T00:12:35;96431.66;;;19.04;80.87
1401;BME280;46518;48.842;8.926;2023-07-28T00:15:04;96431.84;;;19.07;81.01
1401;BME280;46518;48.842;8.926;2023-07-28T00:17:32;96426.63;;;19.11;80.61
1401;BME280;46518;48.842;8.926;2023-07-28T00:20:00;96427.91;;;18.96;81.25
1401;BME280;46518;48.842;8.926;2023-07-28T00:22:28;96420.38;;;19.07;80.93
1401;BME280;46518;48.842;8.926;2023-07-28T00:24:56;96422.41;;;19.10;81.04
1401;BME280;46518;48.842;8.926;2023-07-28T00:27:24;96419.25;;;19.16;80.07
1401;BME280;46518;48.842;8.926;2023-07-28T00:29:53;96415.97;;;19.20;79.94
1401;BME280;46518;48.842;8.926;2023-07-28T00:32:22;96417.38;;;19.17;80.39
1401;BME280;46518;48.842;8.926;2023-07-28T00:34:50;96416.44;;;19.04;80.78
1401;BME280;46518;48.842;8.926;2023-07-28T00:37:19;96421.63;;;19.01;81.34
1401;BME280;46518;48.842;8.926;2023-07-28T00:39:47;96420.38;;;19.07;81.07
1401;BME280;46518;48.842;8.926;2023-07-28T00:42:15;96419.88;;;19.13;80.89
1401;BME280;46518;48.842;8.926;2023-07-28T00:44:43;96418.00;;;19.23;80.52
1401;BME280;46518;48.842;8.926;2023-07-28T00:47:13;96413.47;;;19.06;80.89
1401;BME280;46518;48.842;8.926;2023-07-28T00:49:41;96415.50;;;19.17;80.77
1401;BME280;46518;48.842;8.926;2023-07-28T00:52:10;96417.31;;;19.43;79.56
1401;BME280;46518;48.842;8.926;2023-07-28T00:54:38;96417.44;;;19.47;78.46
1401;BME280;46518;48.842;8.926;2023-07-28T00:57:06;96417.59;;;19.42;78.48
1401;BME280;46518;48.842;8.926;2023-07-28T00:59:34;96405.13;;;19.25;78.99
1401;BME280;46518;48.842;8.926;2023-07-28T01:02:03;96412.84;;;19.09;80.08
1401;BME280;46518;48.842;8.926;2023-07-28T01:04:32;96415.16;;;19.19;80.43
1401;BME280;46518;48.842;8.926;2023-07-28T01:07:04;96422.56;;;19.22;79.83
1401;BME280;46518;48.842;8.926;2023-07-28T01:09:41;96419.88;;;19.22;79.55
1401;BME280;46518;48.842;8.926;2023-07-28T01:12:11;96415.06;;;18.98;80.77
1401;BME280;46518;48.842;8.926;2023-07-28T01:14:39;96413.34;;;18.93;81.28
1401;BME280;46518;48.842;8.926;2023-07-28T01:17:07;96412.25;;;18.86;81.91
1401;BME280;46518;48.842;8.926;2023-07-28T01:19:37;96409.88;;;18.84;81.82
1401;BME280;46518;48.842;8.926;2023-07-28T01:22:22;96410.97;;;19.01;81.19
1401;BME280;46518;48.842;8.926;2023-07-28T01:25:03;96415.22;;;18.84;82.30
1401;BME280;46518;48.842;8.926;2023-07-28T01:27:36;96408.94;;;18.98;81.60
1401;BME280;46518;48.842;8.926;2023-07-28T01:30:09;96406.06;;;19.11;80.64
1401;BME280;46518;48.842;8.926;2023-07-28T01:32:38;96406.06;;;19.20;80.67
1401;BME280;46518;48.842;8.926;2023-07-28T01:35:07;96414.22;;;19.24;79.67
1401;BME280;46518;48.842;8.926;2023-07-28T01:37:35;96409.03;;;19.27;79.76
1401;BME280;46518;48.842;8.926;2023-07-28T01:40:04;96403.72;;;19.27;79.72
1401;BME280;46518;48.842;8.926;2023-07-28T01:42:34;96413.41;;;19.32;79.18
1401;BME280;46518;48.842;8.926;2023-07-28T01:45:02;96400.88;;;19.24;79.32
1401;BME280;46518;48.842;8.926;2023-07-28T01:47:31;96400.75;;;19.20;79.17
1401;BME280;46518;48.842;8.926;2023-07-28T01:49:59;96398.41;;;19.10;79.56
1401;BME280;46518;48.842;8.926;2023-07-28T01:52:27;96395.56;;;19.15;79.90
1401;BME280;46518;48.842;8.926;2023-07-28T01:54:55;96400.13;;;19.06;80.25
1401;BME280;46518;48.842;8.926;2023-07-28T01:57:23;96392.91;;;19.15;80.22
1401;BME280;46518;48.842;8.926;2023-07-28T01:59:55;96392.88;;;19.24;79.97
1401;BME280;46518;48.842;8.926;2023-07-28T02:02:23;96396.81;;;19.17;79.85
1401;BME280;46518;48.842;8.926;2023-07-28T02:04:51;96401.84;;;19.10;80.35
1401;BME280;46518;48.842;8.926;2023-07-28T02:07:19;96402.03;;;19.05;80.33
1401;BME280;46518;48.842;8.926;2023-07-28T02:09:47;96397.34;;;18.93;80.85
1401;BME280;46518;48.842;8.926;2023-07-28T02:12:15;96388.41;;;18.98;81.17
1401;BME280;46518;48.842;8.926;2023-07-28T02:14:44;96393.09;;;19.10;80.70
1401;BME280;46518;48.842;8.926;2023-07-28T02:17:13;96397.47;;;19.06;80.28
1401;BME280;46518;48.842;8.926;2023-07-28T02:19:41;96394.38;;;18.95;80.99
1401;BME280;46518;48.842;8.926;2023-07-28T02:22:10;96396.22;;;18.94;81.42
1401;BME280;46518;48.842;8.926;2023-07-28T02:24:38;96402.19;;;18.91;81.21
1401;BME280;46518;48.842;8.926;2023-07-28T02:27:07;96397.63;;;18.92;81.36
1401;BME280;46518;48.842;8.926;2023-07-28T02:29:35;96396.38;;;18.89;81.34
1401;BME280;46518;48.842;8.926;2023-07-28T02:32:03;96405.50;;;18.88;81.53
1401;BME280;46518;48.842;8.926;2023-07-28T02:34:33;96406.13;;;18.94;81.80
1401;BME280;46518;48.842;8.926;2023-07-28T02:37:01;96410.97;;;19.01;81.92
1401;BME280;46518;48.842;8.926;2023-07-28T02:39:29;96401.25;;;19.05;81.92
1401;BME280;46518;48.842;8.926;2023-07-28T02:41:57;96413.50;;;18.97;81.78
1401;BME280;46518;48.842;8.926;2023-07-28T02:44:25;96410.19;;;19.00;81.92
1401;BME280;46518;48.842;8.926;2023-07-28T02:46:53;96413.00;;;19.04;82.03
1401;BME280;46518;48.842;8.926;2023-07-28T02:49:22;96409.88;;;19.02;81.90
1401;BME280;46518;48.842;8.926;2023-07-28T02:51:51;96418.03;;;19.05;82.22
1401;BME280;46518;48.842;8.926;2023-07-28T02:54:19;96425.09;;;19.01;82.21
1401;BME280;46518;48.842;8.926;2023-07-28T02:56:50;96427.91;;;19.05;82.08
1401;BME280;46518;48.842;8.926;2023-07-28T02:59:19;96434.03;;;19.05;82.01
1401;BME280;46518;48.842;8.926;2023-07-28T03:01:47;96449.25;;;18.79;83.16
1401;BME280;46518;48.842;8.926;2023-07-28T03:04:18;96448.78;;;18.77;83.12
1401;BME280;46518;48.842;8.926;2023-07-28T03:07:07;96450.84;;;18.80;83.21
1401;BME280;46518;48.842;8.926;2023-07-28T03:09:38;96450.06;;;18.88;82.97
1401;BME280;46518;48.842;8.926;2023-07-28T03:12:07;96455.38;;;18.88;82.95
1401;BME280;46518;48.842;8.926;2023-07-28T03:14:35;96458.97;;;18.83;83.15
1401;BME280;46518;48.842;8.926;2023-07-28T03:17:03;96462.44;;;18.92;83.56
1401;BME280;46518;48.842;8.926;2023-07-28T03:19:32;96467.13;;;18.95;83.31
1401;BME280;46518;48.842;8.926;2023-07-28T03:22:00;96472.16;;;19.06;83.10
1401;BME280;46518;48.842;8.926;2023-07-28T03:24:29;96479.84;;;18.99;83.29
1401;BME280;46518;48.842;8.926;2023-07-28T03:26:57;96478.88;;;18.94;83.87
1401;BME280;46518;48.842;8.926;2023-07-28T03:29:26;96483.13;;;18.95;84.49
1401;BME280;46518;48.842;8.926;2023-07-28T03:31:54;96489.25;;;18.96;84.75
1401;BME280;46518;48.842;8.926;2023-07-28T03:34:22;96493.31;;;18.93;85.29
1401;BME280;46518;48.842;8.926;2023-07-28T03:36:51;96490.97;;;18.83;86.85
1401;BME280;46518;48.842;8.926;2023-07-28T03:39:19;96501.16;;;18.81;87.10
1401;BME280;46518;48.842;8.926;2023-07-28T03:41:49;96511.03;;;18.89;86.91
1401;BME280;46518;48.842;8.926;2023-07-28T03:44:18;96503.53;;;18.91;86.83
1401;BME280;46518;48.842;8.926;2023-07-28T03:46:46;96498.19;;;18.83;87.27
1401;BME280;46518;48.842;8.926;2023-07-28T03:49:14;96491.25;;;18.73;88.77
1401;BME280;46518;48.842;8.926;2023-07-28T03:51:43;96493.28;;;18.59;91.11
1401;BME280;46518;48.842;8.926;2023-07-28T03:54:11;96497.53;;;18.60;91.79
1401;BME280;46518;48.842;8.926;2023-07-28T03:56:39;96490.47;;;18.72;91.98
1401;BME280;46518;48.842;8.926;2023-07-28T03:59:08;96476.25;;;18.77;91.29
1401;BME280;46518;48.842;8.926;2023-07-28T04:01:37;96484.03;;;18.73;92.50
1401;BME280;46518;48.842;8.926;2023-07-28T04:04:05;96482.78;;;18.71;92.53
1401;BME280;46518;48.842;8.926;2023-07-28T04:06:39;96485.03;;;18.78;92.71
1401;BME280;46518;48.842;8.926;2023-07-28T04:09:08;96488.78;;;18.85;92.71
1401;BME280;46518;48.842;8.926;2023-07-28T04:11:37;96486.44;;;18.84;93.16
1401;BME280;46518;48.842;8.926;2023-07-28T04:14:06;96476.69;;;18.96;92.49
1401;BME280;46518;48.842;8.926;2023-07-28T04:16:35;96482.97;;;18.92;92.01
1401;BME280;46518;48.842;8.926;2023-07-28T04:19:05;96472.00;;;18.93;92.46
1401;BME280;46518;48.842;8.926;2023-07-28T04:21:32;96474.97;;;19.01;92.00
1401;BME280;46518;48.842;8.926;2023-07-28T04:24:00;96471.22;;;19.10;91.61
1401;BME280;46518;48.842;8.926;2023-07-28T04:26:28;96470.09;;;19.11;91.61
1401;BME280;46518;48.842;8.926;2023-07-28T04:29:00;96476.06;;;19.17;92.08
1401;BME280;46518;48.842;8.926;2023-07-28T04:31:29;96470.56;;;19.22;91.96
1401;BME280;46518;48.842;8.926;2023-07-28T04:34:04;96469.31;;;19.20;91.35
1401;BME280;46518;48.842;8.926;2023-07-28T04:36:51;96463.19;;;19.19;91.44
1401;BME280;46518;48.842;8.926;2023-07-28T04:39:23;96471.19;;;19.19;91.46
1401;BME280;46518;48.842;8.926;2023-07-28T04:41:51;96472.75;;;19.20;91.82
1401;BME280;46518;48.842;8.926;2023-07-28T04:44:20;96476.84;;;19.17;91.55
1401;BME280;46518;48.842;8.926;2023-07-28T04:46:53;96476.69;;;19.23;91.95
1401;BME280;46518;48.842;8.926;2023-07-28T04:49:22;96465.53;;;19.21;92.19
1401;BME280;46518;48.842;8.926;2023-07-28T04:52:07;96463.97;;;19.20;92.58
1401;BME280;46518;48.842;8.926;2023-07-28T04:54:56;96485.47;;;19.06;92.61
1401;BME280;46518;48.842;8.926;2023-07-28T04:57:25;96480.44;;;19.04;93.18
1401;BME280;46518;48.842;8.926;2023-07-28T04:59:53;96488.31;;;18.92;94.63
1401;BME280;46518;48.842;8.926;2023-07-28T05:02:21;96480.78;;;18.77;96.17
1401;BME280;46518;48.842;8.926;2023-07-28T05:04:51;96465.44;;;18.82;95.76
1401;BME280;46518;48.842;8.926;2023-07-28T05:07:19;96480.94;;;18.98;95.52
1401;BME280;46518;48.842;8.926;2023-07-28T05:09:47;96494.59;;;19.05;95.49
1401;BME280;46518;48.842;8.926;2023-07-28T05:12:17;96500.06;;;19.08;95.17
1401;BME280;46518;48.842;8.926;2023-07-28T05:14:47;96495.03;;;19.07;95.15
1401;BME280;46518;48.842;8.926;2023-07-28T05:17:19;96493.97;;;19.08;95.56
1401;BME280;46518;48.842;8.926;2023-07-28T05:20:04;96499.91;;;19.13;95.24
1401;BME280;46518;48.842;8.926;2023-07-28T05:22:45;96505.41;;;19.17;95.14
1401;BME280;46518;48.842;8.926;2023-07-28T05:25:14;96509.47;;;19.23;94.86
1401;BME280;46518;48.842;8.926;2023-07-28T05:27:43;96505.25;;;19.22;94.68
1401;BME280;46518;48.842;8.926;2023-07-28T05:30:11;96506.50;;;19.25;94.67
1401;BME280;46518;48.842;8.926;2023-07-28T05:32:40;96510.25;;;19.32;94.41
1401;BME280;46518;48.842;8.926;2023-07-28T05:35:26;96512.28;;;19.35;94.41
1401;BME280;46518;48.842;8.926;2023-07-28T05:37:54;96521.84;;;19.36;94.40
1401;BME280;46518;48.842;8.926;2023-07-28T05:40:22;96514.19;;;19.35;94.45
1401;BME280;46518;48.842;8.926;2023-07-28T05:42:50;96518.69;;;19.34;94.69
1401;BME280;46518;48.842;8.926;2023-07-28T05:45:19;96525.31;;;19.28;95.19
1401;BME280;46518;48.842;8.926;2023-07-28T05:47:47;96523.59;;;19.15;95.19
1401;BME280;46518;48.842;8.926;2023-07-28T05:50:50;96520.47;;;18.95;97.14
1401;BME280;46518;48.842;8.926;2023-07-28T05:53:20;96536.78;;;18.94;98.16
1401;BME280;46518;48.842;8.926;2023-07-28T05:55:52;96530.19;;;18.91;99.19
1401;BME280;46518;48.842;8.926;2023-07-28T05:58:21;96529.41;;;19.00;99.09
1401;BME280;46518;48.842;8.926;2023-07-28T06:00:50;96527.06;;;19.15;98.84
1401;BME280;46518;48.842;8.926;2023-07-28T06:03:38;96531.13;;;19.22;98.58
1401;BME280;46518;48.842;8.926;2023-07-28T06:06:16;96531.75;;;19.27;98.37
1401;BME280;46518;48.842;8.926;2023-07-28T06:08:45;96530.34;;;19.30;98.41
1401;BME280;46518;48.842;8.926;2023-07-28T06:11:14;96533.94;;;19.34;98.18
1401;BME280;46518;48.842;8.926;2023-07-28T06:13:42;96537.84;;;19.45;97.79
1401;BME280;46518;48.842;8.926;2023-07-28T06:16:11;96543.19;;;19.45;97.64
1401;BME280;46518;48.842;8.926;2023-07-28T06:18:39;96538.34;;;19.47;97.45
1401;BME280;46518;48.842;8.926;2023-07-28T06:21:14;96539.41;;;19.55;97.34
1401;BME280;46518;48.842;8.926;2023-07-28T06:23:43;96546.47;;;19.51;96.43
1401;BME280;46518;48.842;8.926;2023-07-28T06:26:12;96545.09;;;19.45;96.92
1401;BME280;46518;48.842;8.926;2023-07-28T06:28:41;96547.72;;;19.53;96.90
1401;BME280;46518;48.842;8.926;2023-07-28T06:31:09;96541.28;;;19.54;96.70
1401;BME280;46518;48.842;8.926;2023-07-28T06:33:38;96543.50;;;19.52;96.99
1401;BME280;46518;48.842;8.926;2023-07-28T06:36:06;96543.63;;;19.56;96.81
1401;BME280;46518;48.842;8.926;2023-07-28T06:38:34;96527.44;;;19.61;97.12
1401;BME280;46518;48.842;8.926;2023-07-28T06:41:03;96518.06;;;19.55;97.03
1401;BME280;46518;48.842;8.926;2023-07-28T06:43:32;96543.03;;;19.50;97.31
1401;BME280;46518;48.842;8.926;2023-07-28T06:46:01;96548.38;;;19.42;98.31
1401;BME280;46518;48.842;8.926;2023-07-28T06:48:29;96534.28;;;19.32;98.40
1401;BME280;46518;48.842;8.926;2023-07-28T06:50:57;96557.00;;;19.47;99.31
1401;BME280;46518;48.842;8.926;2023-07-28T06:53:27;96554.00;;;19.57;99.38
1401;BME280;46518;48.842;8.926;2023-07-28T06:56:04;96554.03;;;19.31;100.00
1401;BME280;46518;48.842;8.926;2023-07-28T06:58:41;96531.44;;;19.20;100.00
1401;BME280;46518;48.842;8.926;2023-07-28T07:01:35;96560.63;;;19.34;100.00
1401;BME280;46518;48.842;8.926;2023-07-28T07:04:04;96566.91;;;19.38;100.00
1401;BME280;46518;48.842;8.926;2023-07-28T07:06:33;96556.69;;;19.31;100.00
1401;BME280;46518;48.842;8.926;2023-07-28T07:09:01;96560.94;;;19.32;100.00
1401;BME280;46518;48.842;8.926;2023-07-28T07:11:30;96567.81;;;19.51;100.00
1401;BME280;46518;48.842;8.926;2023-07-28T07:14:01;96567.19;;;19.54;100.00
1401;BME280;46518;48.842;8.926;2023-07-28T07:16:29;96567.81;;;19.51;100.00
1401;BME280;46518;48.842;8.926;2023-07-28T07:18:57;96565.31;;;19.63;100.00
1401;BME280;46518;48.842;8.926;2023-07-28T07:21:27;96566.41;;;19.71;100.00
1401;BME280;46518;48.842;8.926;2023-07-28T07:23:55;96567.66;;;19.65;100.00
1401;BME280;46518;48.842;8.926;2023-07-28T07:26:26;96570.81;;;19.58;100.00
1401;BME280;46518;48.842;8.926;2023-07-28T07:28:54;96568.59;;;19.69;99.92
1401;BME280;46518;48.842;8.926;2023-07-28T07:31:23;96565.94;;;19.60;99.42
1401;BME280;46518;48.842;8.926;2023-07-28T07:33:52;96578.81;;;19.75;100.00
1401;BME280;46518;48.842;8.926;2023-07-28T07:36:20;96581.16;;;19.86;100.00
1401;BME280;46518;48.842;8.926;2023-07-28T07:38:48;96572.06;;;19.69;97.32
1401;BME280;46518;48.842;8.926;2023-07-28T07:41:16;96579.63;;;19.67;98.28
1401;BME280;46518;48.842;8.926;2023-07-28T07:43:57;96584.94;;;19.76;96.89
1401;BME280;46518;48.842;8.926;2023-07-28T07:46:26;96584.94;;;19.76;96.91
1401;BME280;46518;48.842;8.926;2023-07-28T07:48:54;96585.09;;;19.62;97.38
1401;BME280;46518;48.842;8.926;2023-07-28T07:51:23;96594.81;;;19.58;97.04
1401;BME280;46518;48.842;8.926;2023-07-28T07:53:51;96595.91;;;19.74;96.78
1401;BME280;46518;48.842;8.926;2023-07-28T07:56:19;96591.03;;;19.76;95.65
1401;BME280;46518;48.842;8.926;2023-07-28T07:58:47;96595.78;;;19.62;91.84
1401;BME280;46518;48.842;8.926;2023-07-28T08:01:15;96602.03;;;19.66;94.89
1401;BME280;46518;48.842;8.926;2023-07-28T08:03:45;96604.88;;;19.78;94.50
1401;BME280;46518;48.842;8.926;2023-07-28T08:06:13;96609.44;;;19.78;93.13
1401;BME280;46518;48.842;8.926;2023-07-28T08:08:41;96615.56;;;19.78;92.03
1401;BME280;46518;48.842;8.926;2023-07-28T08:11:10;96614.47;;;19.71;93.32
1401;BME280;46518;48.842;8.926;2023-07-28T08:13:38;96607.38;;;19.83;92.82
1401;BME280;46518;48.842;8.926;2023-07-28T08:16:07;96604.53;;;19.97;93.21
1401;BME280;46518;48.842;8.926;2023-07-28T08:18:35;96610.31;;;20.08;92.74
1401;BME280;46518;48.842;8.926;2023-07-28T08:21:05;96610.78;;;20.10;93.70
1401;BME280;46518;48.842;8.926;2023-07-28T08:23:33;96614.09;;;19.98;91.60
1401;BME280;46518;48.842;8.926;2023-07-28T08:26:01;96624.78;;;19.98;90.08
1401;BME280;46518;48.842;8.926;2023-07-28T08:28:30;96617.84;;;20.06;90.64
1401;BME280;46518;48.842;8.926;2023-07-28T08:30:59;96623.38;;;20.01;90.47
1401;BME280;46518;48.842;8.926;2023-07-28T08:33:28;96627.44;;;19.98;89.38
1401;BME280;46518;48.842;8.926;2023-07-28T08:35:56;96630.75;;;19.95;90.21
1401;BME280;46518;48.842;8.926;2023-07-28T08:38:29;96638.25;;;20.19;91.80
1401;BME280;46518;48.842;8.926;2023-07-28T08:40:57;96620.16;;;20.25;90.04
1401;BME280;46518;48.842;8.926;2023-07-28T08:43:26;96617.25;;;20.39;93.87
1401;BME280;46518;48.842;8.926;2023-07-28T08:45:55;96626.03;;;20.48;86.26
1401;BME280;46518;48.842;8.926;2023-07-28T08:48:23;96611.56;;;20.49;89.50
1401;BME280;46518;48.842;8.926;2023-07-28T08:50:52;96612.53;;;20.44;88.01
1401;BME280;46518;48.842;8.926;2023-07-28T08:53:21;96612.69;;;20.57;90.18
1401;BME280;46518;48.842;8.926;2023-07-28T08:55:51;96633.81;;;20.71;87.94
1401;BME280;46518;48.842;8.926;2023-07-28T08:58:20;96638.75;;;20.60;84.81
1401;BME280;46518;48.842;8.926;2023-07-28T09:00:49;96627.22;;;20.77;89.94
1401;BME280;46518;48.842;8.926;2023-07-28T09:03:18;96640.00;;;20.92;88.45
1401;BME280;46518;48.842;8.926;2023-07-28T09:05:46;96631.81;;;20.97;87.11
1401;BME280;46518;48.842;8.926;2023-07-28T09:08:15;96630.88;;;21.14;88.20
1401;BME280;46518;48.842;8.926;2023-07-28T09:10:44;96640.03;;;21.13;82.60
1401;BME280;46518;48.842;8.926;2023-07-28T09:13:15;96641.34;;;21.07;82.21
1401;BME280;46518;48.842;8.926;2023-07-28T09:15:44;96643.16;;;21.15;82.99
1401;BME280;46518;48.842;8.926;2023-07-28T09:18:15;96636.84;;;21.20;82.33
1401;BME280;46518;48.842;8.926;2023-07-28T09:20:44;96648.03;;;21.22;80.57
1401;BME280;46518;48.842;8.926;2023-07-28T09:23:13;96642.78;;;21.25;82.24
1401;BME280;46518;48.842;8.926;2023-07-28T09:25:42;96642.91;;;21.29;80.16
1401;BME280;46518;48.842;8.926;2023-07-28T09:28:10;96646.69;;;21.28;78.92
1401;BME280;46518;48.842;8.926;2023-07-28T09:30:46;96654.06;;;21.10;78.85
1401;BME280;46518;48.842;8.926;2023-07-28T09:33:28;96647.16;;;21.30;81.09
1401;BME280;46518;48.842;8.926;2023-07-28T09:35:56;96643.16;;;21.45;79.33
1401;BME280;46518;48.842;8.926;2023-07-28T09:38:27;96638.63;;;21.58;79.12
1401;BME280;46518;48.842;8.926;2023-07-28T09:40:57;96634.25;;;21.53;78.71
1401;BME280;46518;48.842;8.926;2023-07-28T09:43:26;96640.44;;;21.66;79.96
1401;BME280;46518;48.842;8.926;2023-07-28T09:45:56;96637.78;;;21.66;76.10
1401;BME280;46518;48.842;8.926;2023-07-28T09:48:25;96643.28;;;21.48;78.41
1401;BME280;46518;48.842;8.926;2023-07-28T09:50:56;96648.69;;;21.61;79.36
1401;BME280;46518;48.842;8.926;2023-07-28T09:53:27;96637.56;;;21.71;80.22
1401;BME280;46518;48.842;8.926;2023-07-28T09:55:58;96644.56;;;21.84;78.83
1401;BME280;46518;48.842;8.926;2023-07-28T09:58:27;96646.41;;;22.05;77.52
1401;BME280;46518;48.842;8.926;2023-07-28T10:01:02;96637.78;;;22.11;76.95
1401;BME280;46518;48.842;8.926;2023-07-28T10:03:32;96649.19;;;21.75;75.35
1401;BME280;46518;48.842;8.926;2023-07-28T10:06:01;96638.81;;;21.73;77.71
1401;BME280;46518;48.842;8.926;2023-07-28T10:08:31;96654.91;;;21.86;78.24
1401;BME280;46518;48.842;8.926;2023-07-28T10:11:01;96653.66;;;22.04;79.45
1401;BME280;46518;48.842;8.926;2023-07-28T10:13:39;96650.13;;;21.79;77.97
1401;BME280;46518;48.842;8.926;2023-07-28T10:16:09;96655.19;;;21.93;78.54
1401;BME280;46518;48.842;8.926;2023-07-28T10:18:39;96661.19;;;21.90;78.08
1401;BME280;46518;48.842;8.926;2023-07-28T10:21:09;96647.03;;;21.89;78.94
1401;BME280;46518;48.842;8.926;2023-07-28T10:23:40;96670.09;;;21.82;78.16
1401;BME280;46518;48.842;8.926;2023-07-28T10:26:09;96669.44;;;21.85;78.93
1401;BME280;46518;48.842;8.926;2023-07-28T10:28:38;96670.00;;;21.90;77.56
1401;BME280;46518;48.842;8.926;2023-07-28T10:31:10;96670.19;;;22.18;77.93
1401;BME280;46518;48.842;8.926;2023-07-28T10:33:40;96671.72;;;22.28;76.62
1401;BME280;46518;48.842;8.926;2023-07-28T10:36:13;96673.06;;;22.22;76.47
1401;BME280;46518;48.842;8.926;2023-07-28T10:38:42;96669.28;;;22.02;76.27
1401;BME280;46518;48.842;8.926;2023-07-28T10:41:13;96670.50;;;22.05;76.73
1401;BME280;46518;48.842;8.926;2023-07-28T10:43:42;96678.06;;;21.90;77.87
1401;BME280;46518;48.842;8.926;2023-07-28T10:46:19;96679.91;;;21.78;76.62
1401;BME280;46518;48.842;8.926;2023-07-28T10:48:50;96681.13;;;21.80;77.02
1401;BME280;46518;48.842;8.926;2023-07-28T10:51:21;96679.22;;;21.81;77.41
1401;BME280;46518;48.842;8.926;2023-07-28T10:53:54;96675.09;;;22.04;76.91
1401;BME280;46518;48.842;8.926;2023-07-28T10:56:24;96678.47;;;21.80;75.96
1401;BME280;46518;48.842;8.926;2023-07-28T10:58:56;96683.16;;;21.83;76.43
1401;BME280;46518;48.842;8.926;2023-07-28T11:01:30;96680.34;;;22.13;75.90
1401;BME280;46518;48.842;8.926;2023-07-28T11:04:06;96680.88;;;22.27;76.67
1401;BME280;46518;48.842;8.926;2023-07-28T11:06:35;96678.66;;;22.29;74.79
1401;BME280;46518;48.842;8.926;2023-07-28T11:09:05;96680.03;;;22.14;73.88
1401;BME280;46518;48.842;8.926;2023-07-28T11:11:34;96675.66;;;22.10;74.49
1401;BME280;46518;48.842;8.926;2023-07-28T11:14:04;96685.25;;;22.11;74.59
1401;BME280;46518;48.842;8.926;2023-07-28T11:16:35;96680.53;;;22.29;73.79
1401;BME280;46518;48.842;8.926;2023-07-28T11:19:08;96681.97;;;22.26;74.33
1401;BME280;46518;48.842;8.926;2023-07-28T11:21:37;96676.06;;;22.21;74.10
1401;BME280;46518;48.842;8.926;2023-07-28T11:24:07;96674.50;;;21.98;74.86
1401;BME280;46518;48.842;8.926;2023-07-28T11:26:36;96677.06;;;22.28;75.22
1401;BME280;46518;48.842;8.926;2023-07-28T11:29:05;96678.34;;;22.10;74.08
1401;BME280;46518;48.842;8.926;2023-07-28T11:31:36;96674.16;;;22.21;75.41
1401;BME280;46518;48.842;8.926;2023-07-28T11:34:12;96670.81;;;22.36;74.37
1401;BME280;46518;48.842;8.926;2023-07-28T11:36:41;96677.41;;;22.27;74.51
1401;BME280;46518;48.842;8.926;2023-07-28T11:39:10;96678.69;;;22.54;74.34
1401;BME280;46518;48.842;8.926;2023-07-28T11:41:39;96666.28;;;22.49;72.41
1401;BME280;46518;48.842;8.926;2023-07-28T11:44:08;96665.16;;;22.50;75.59
1401;BME280;46518;48.842;8.926;2023-07-28T11:46:39;96668.78;;;22.79;73.67
1401;BME280;46518;48.842;8.926;2023-07-28T11:49:09;96679.25;;;22.59;75.00
1401;BME280;46518;48.842;8.926;2023-07-28T11:51:39;96679.59;;;22.70;79.65
1401;BME280;46518;48.842;8.926;2023-07-28T11:54:11;96679.84;;;22.90;79.82
1401;BME280;46518;48.842;8.926;2023-07-28T11:56:42;96674.69;;;22.97;80.16
1401;BME280;46518;48.842;8.926;2023-07-28T11:59:10;96681.50;;;22.70;81.64
1401;BME280;46518;48.842;8.926;2023-07-28T12:01:54;96683.50;;;22.73;81.52
1401;BME280;46518;48.842;8.926;2023-07-28T12:04:27;96690.06;;;22.51;81.47
1401;BME280;46518;48.842;8.926;2023-07-28T12:07:03;96692.53;;;22.56;81.86
1401;BME280;46518;48.842;8.926;2023-07-28T12:09:47;96694.19;;;22.48;82.86
1401;BME280;46518;48.842;8.926;2023-07-28T12:12:29;96689.81;;;22.31;85.51
1401;BME280;46518;48.842;8.926;2023-07-28T12:15:23;96691.69;;;21.97;88.09
1401;BME280;46518;48.842;8.926;2023-07-28T12:18:03;96695.59;;;21.67;88.17
1401;BME280;46518;48.842;8.926;2023-07-28T12:20:36;96691.78;;;21.68;88.97
1401;BME280;46518;48.842;8.926;2023-07-28T12:23:05;96687.16;;;21.56;91.92
1401;BME280;46518;48.842;8.926;2023-07-28T12:25:37;96687.75;;;21.41;93.39
1401;BME280;46518;48.842;8.926;2023-07-28T12:28:05;96693.31;;;21.27;94.27
1401;BME280;46518;48.842;8.926;2023-07-28T12:30:45;96680.84;;;21.31;95.18
1401;BME280;46518;48.842;8.926;2023-07-28T12:33:17;96675.50;;;21.31;96.02
1401;BME280;46518;48.842;8.926;2023-07-28T12:35:48;96657.53;;;21.31;95.84
1401;BME280;46518;48.842;8.926;2023-07-28T12:38:17;96668.28;;;21.52;94.81
1401;BME280;46518;48.842;8.926;2023-07-28T12:40:48;96672.25;;;21.46;93.09
1401;BME280;46518;48.842;8.926;2023-07-28T12:43:19;96671.22;;;21.60;92.22
1401;BME280;46518;48.842;8.926;2023-07-28T12:45:50;96671.03;;;21.65;91.87
1401;BME280;46518;48.842;8.926;2023-07-28T12:48:24;96675.47;;;21.61;92.73
1401;BME280;46518;48.842;8.926;2023-07-28T12:50:52;96680.66;;;21.36;91.88
1401;BME280;46518;48.842;8.926;2023-07-28T12:53:22;96681.63;;;21.31;91.08
1401;BME280;46518;48.842;8.926;2023-07-28T12:55:51;96682.09;;;21.33;91.14
1401;BME280;46518;48.842;8.926;2023-07-28T12:58:22;96688.97;;;21.43;92.82
1401;BME280;46518;48.842;8.926;2023-07-28T13:00:53;96693.81;;;21.50;93.04
1401;BME280;46518;48.842;8.926;2023-07-28T13:03:27;96695.06;;;21.52;93.27
1401;BME280;46518;48.842;8.926;2023-07-28T13:05:55;96702.81;;;21.45;95.25
1401;BME280;46518;48.842;8.926;2023-07-28T13:08:24;96697.78;;;21.44;94.85
1401;BME280;46518;48.842;8.926;2023-07-28T13:10:55;96696.63;;;21.24;95.61
1401;BME280;46518;48.842;8.926;2023-07-28T13:13:26;96695.47;;;21.33;95.19
1401;BME280;46518;48.842;8.926;2023-07-28T13:15:56;96701.59;;;21.34;95.15
1401;BME280;46518;48.842;8.926;2023-07-28T13:18:24;96699.38;;;21.36;95.36
1401;BME280;46518;48.842;8.926;2023-07-28T13:20:54;96700.66;;;21.39;96.12
1401;BME280;46518;48.842;8.926;2023-07-28T13:23:22;96705.84;;;21.35;96.70
1401;BME280;46518;48.842;8.926;2023-07-28T13:25:50;96706.44;;;21.20;96.18